Time;durP1;ratioP1;P1;durP2;ratioP2;P2;SDS_P1;SDS_P2;PMS_P1;PMS_P2;Temp;Humidity;BMP_temperature;BMP_pressure;BME280_temperature;BME280_humidity;BME280_pressure;Samples;Min_cycle;Max_cycle;Signal;HPM_P1;HPM_P2
2024/01/16 00:00:35;;;;;;;;;;;1.60;99.90;;;;;;5080924;28;19973;-75
2024/01/16 00:03:00;;;;;;;;;;;1.60;99.90;;;;;;5066247;28;19956;-75
2024/01/16 00:05:26;;;;;;;;;;;1.80;99.90;;;;;;5098368;28;19928;-75
2024/01/16 00:07:52;;;;;;;;;;;1.70;99.90;;;;;;5080951;28;20386;-73
2024/01/16 00:10:17;;;;;;;;;;;1.70;99.90;;;;;;5080882;28;20047;-74
2024/01/16 00:12:43;;;;;;;;;;;1.70;99.90;;;;;;5082073;28;20655;-74
2024/01/16 00:15:09;;;;;;;;;;;1.80;99.90;;;;;;5079043;28;19974;-75
2024/01/16 00:17:34;;;;;;;;;;;1.70;99.90;;;;;;5082233;27;19939;-75
2024/01/16 00:20:00;;;;;;;;;;;1.70;99.90;;;;;;5080613;28;19927;-74
2024/01/16 00:22:29;;;;;;;;;;;1.60;99.90;;;;;;5082018;28;20015;-74
2024/01/16 00:24:55;;;;;;;;;;;1.60;99.90;;;;;;5095991;27;19936;-74
2024/01/16 00:27:21;;;;;;;;;;;1.60;99.90;;;;;;5082903;28;19935;-74
2024/01/16 00:29:46;;;;;;;;;;;1.60;99.90;;;;;;5080333;28;19946;-74
2024/01/16 00:32:15;;;;;;;;;;;2.20;99.90;;;;;;5088721;28;19932;-74
2024/01/16 00:34:44;;;;;;;;;;;1.60;99.90;;;;;;5080144;27;20026;-74
2024/01/16 00:37:10;;;;;;;;;;;1.50;99.90;;;;;;5083396;28;19935;-74
2024/01/16 00:39:35;;;;;;;;;;;1.50;99.90;;;;;;5079946;28;21048;-75
2024/01/16 00:42:01;;;;;;;;;;;1.70;99.90;;;;;;5081406;28;20454;-74
2024/01/16 00:44:28;;;;;;;;;;;1.70;99.90;;;;;;5077816;27;19931;-74
2024/01/16 00:46:53;;;;;;;;;;;1.70;99.90;;;;;;5078925;28;19931;-74
2024/01/16 00:49:19;;;;;;;;;;;1.60;99.90;;;;;;5078430;28;19955;-74
2024/01/16 00:51:46;;;;;;;;;;;1.60;99.90;;;;;;5050032;28;19963;-75
2024/01/16 00:54:12;;;;;;;;;;;3.00;99.90;;;;;;5096159;27;20445;-74
2024/01/16 00:56:38;;;;;;;;;;;1.70;99.90;;;;;;5062477;28;19934;-74
2024/01/16 00:59:03;;;;;;;;;;;1.70;99.90;;;;;;5081009;28;19928;-75
2024/01/16 01:01:29;;;;;;;;;;;1.70;99.90;;;;;;5097649;28;19928;-74
2024/01/16 01:03:54;;;;;;;;;;;1.70;98.80;;;;;;5081857;28;20459;-74
2024/01/16 01:06:20;;;;;;;;;;;1.70;98.70;;;;;;5080105;28;19928;-75
2024/01/16 01:08:46;;;;;;;;;;;1.60;97.90;;;;;;5063838;28;19923;-74
2024/01/16 01:11:12;;;;;;;;;;;1.70;97.60;;;;;;5079700;28;20630;-74
2024/01/16 01:13:38;;;;;;;;;;;1.70;97.90;;;;;;5078628;28;20471;-74
2024/01/16 01:16:04;;;;;;;;;;;1.70;97.50;;;;;;5079467;28;20045;-74
2024/01/16 01:18:29;;;;;;;;;;;1.60;98.80;;;;;;5094929;28;20018;-74
2024/01/16 01:20:56;;;;;;;;;;;1.80;99.20;;;;;;5078357;28;19932;-74
2024/01/16 01:23:21;;;;;;;;;;;1.80;99.30;;;;;;5065038;28;19984;-75
2024/01/16 01:25:47;;;;;;;;;;;2.20;99.30;;;;;;5079630;28;19928;-74
2024/01/16 01:28:13;;;;;;;;;;;1.60;98.90;;;;;;5065655;28;19924;-74
2024/01/16 01:30:38;;;;;;;;;;;1.80;98.90;;;;;;5098247;27;20476;-74
2024/01/16 01:33:04;;;;;;;;;;;1.60;99.50;;;;;;5081415;28;20013;-73
2024/01/16 01:35:30;;;;;;;;;;;1.30;99.50;;;;;;5098961;28;19992;-74
2024/01/16 01:37:56;;;;;;;;;;;3.10;99.50;;;;;;5080182;28;20420;-74
2024/01/16 01:40:22;;;;;;;;;;;2.00;99.30;;;;;;5079874;28;19924;-74
2024/01/16 01:42:47;;;;;;;;;;;1.70;98.80;;;;;;5078720;28;19935;-74
2024/01/16 01:45:13;;;;;;;;;;;1.50;98.80;;;;;;5080398;28;19941;-74
2024/01/16 01:47:39;;;;;;;;;;;2.00;98.90;;;;;;5065330;28;19939;-74
2024/01/16 01:50:09;;;;;;;;;;;1.50;99.10;;;;;;5079446;28;19927;-74
2024/01/16 01:52:38;;;;;;;;;;;1.60;98.90;;;;;;5045118;28;20022;-75
2024/01/16 01:55:05;;;;;;;;;;;2.50;98.50;;;;;;5080129;28;19947;-75
2024/01/16 01:57:32;;;;;;;;;;;1.60;97.40;;;;;;5060755;28;19934;-73
2024/01/16 01:59:58;;;;;;;;;;;1.50;96.80;;;;;;5079133;28;20382;-74
2024/01/16 02:02:24;;;;;;;;;;;1.90;97.00;;;;;;5079986;28;19927;-74
2024/01/16 02:04:50;;;;;;;;;;;2.50;96.50;;;;;;5080233;28;19987;-74
2024/01/16 02:07:16;;;;;;;;;;;1.40;96.50;;;;;;5079686;28;20022;-75
2024/01/16 02:09:41;;;;;;;;;;;1.50;96.90;;;;;;5081815;28;20031;-74
2024/01/16 02:12:07;;;;;;;;;;;1.70;96.60;;;;;;5081125;28;19927;-74
2024/01/16 02:14:32;;;;;;;;;;;1.50;97.10;;;;;;5076415;28;19935;-74
2024/01/16 02:16:58;;;;;;;;;;;2.30;98.10;;;;;;5043284;28;20282;-74
2024/01/16 02:19:25;;;;;;;;;;;1.30;98.00;;;;;;5095003;28;20019;-75
2024/01/16 02:21:52;;;;;;;;;;;1.60;98.20;;;;;;5099768;28;19932;-74
2024/01/16 02:24:18;;;;;;;;;;;1.80;98.50;;;;;;5094284;28;20368;-74
2024/01/16 02:26:44;;;;;;;;;;;3.00;98.90;;;;;;5081256;28;19939;-74
2024/01/16 02:29:10;;;;;;;;;;;1.40;98.50;;;;;;5065585;28;19928;-75
2024/01/16 02:31:36;;;;;;;;;;;1.40;98.70;;;;;;5082948;27;20027;-74
2024/01/16 02:34:03;;;;;;;;;;;1.80;99.20;;;;;;5103481;27;19928;-74
2024/01/16 02:36:29;;;;;;;;;;;1.30;99.40;;;;;;5083857;28;19932;-74
2024/01/16 02:38:55;;;;;;;;;;;1.50;99.40;;;;;;5088441;28;20277;-74
2024/01/16 02:41:20;;;;;;;;;;;1.20;98.50;;;;;;5105994;27;19992;-75
2024/01/16 02:43:46;;;;;;;;;;;1.30;98.80;;;;;;5086843;28;19928;-74
2024/01/16 02:46:12;;;;;;;;;;;1.60;98.90;;;;;;5084469;28;20010;-74
2024/01/16 02:48:38;;;;;;;;;;;1.30;99.00;;;;;;5085134;28;19967;-74
2024/01/16 02:51:04;;;;;;;;;;;1.50;99.10;;;;;;5085373;28;20014;-74
2024/01/16 02:53:31;;;;;;;;;;;1.20;99.30;;;;;;5100775;27;19928;-74
2024/01/16 02:55:59;;;;;;;;;;;1.10;99.00;;;;;;5086821;28;19986;-74
2024/01/16 02:58:30;;;;;;;;;;;1.10;99.00;;;;;;5067612;27;19993;-74
2024/01/16 03:00:57;;;;;;;;;;;1.20;99.20;;;;;;5069979;28;20192;-74
2024/01/16 03:03:22;;;;;;;;;;;1.30;99.30;;;;;;5101009;27;20047;-74
2024/01/16 03:05:48;;;;;;;;;;;1.20;99.20;;;;;;5085311;28;19982;-75
2024/01/16 03:08:14;;;;;;;;;;;1.20;99.10;;;;;;5084898;27;19928;-74
2024/01/16 03:10:40;;;;;;;;;;;1.70;99.20;;;;;;5100459;28;19935;-75
2024/01/16 03:13:05;;;;;;;;;;;3.00;99.30;;;;;;5083970;28;19934;-74
2024/01/16 03:15:31;;;;;;;;;;;2.80;99.20;;;;;;5082671;28;20223;-74
2024/01/16 03:17:57;;;;;;;;;;;1.60;98.90;;;;;;5085973;27;19928;-74
2024/01/16 03:20:23;;;;;;;;;;;1.50;98.80;;;;;;5066225;28;20014;-74
2024/01/16 03:22:49;;;;;;;;;;;1.60;98.90;;;;;;5082579;28;19938;-74
2024/01/16 03:25:16;;;;;;;;;;;1.80;98.80;;;;;;5064773;28;20457;-74
2024/01/16 03:27:42;;;;;;;;;;;1.80;98.70;;;;;;5099912;28;20042;-74
2024/01/16 03:30:08;;;;;;;;;;;1.90;98.30;;;;;;5102109;27;19927;-74
2024/01/16 03:32:34;;;;;;;;;;;1.70;96.70;;;;;;5084307;28;20860;-74
2024/01/16 03:35:00;;;;;;;;;;;2.00;95.40;;;;;;5082093;28;20042;-74
2024/01/16 03:37:25;;;;;;;;;;;1.60;95.20;;;;;;5083171;28;20320;-74
2024/01/16 03:39:51;;;;;;;;;;;1.70;96.30;;;;;;5082346;28;19928;-74
2024/01/16 03:42:17;;;;;;;;;;;1.70;96.70;;;;;;5085634;28;19928;-74
2024/01/16 03:44:46;;;;;;;;;;;1.80;96.60;;;;;;5099398;27;20489;-74
2024/01/16 03:47:12;;;;;;;;;;;3.00;97.00;;;;;;5081528;28;19974;-75
2024/01/16 03:49:38;;;;;;;;;;;1.90;97.10;;;;;;5064648;28;20558;-74
2024/01/16 03:52:03;;;;;;;;;;;1.60;96.60;;;;;;5097515;27;19934;-74
2024/01/16 03:54:35;;;;;;;;;;;1.80;96.90;;;;;;5077052;28;19935;-74
2024/01/16 03:57:01;;;;;;;;;;;1.80;97.60;;;;;;5082608;28;19932;-74
2024/01/16 03:59:26;;;;;;;;;;;2.10;98.20;;;;;;5101478;28;20007;-74
2024/01/16 04:01:52;;;;;;;;;;;1.40;98.30;;;;;;5083231;28;20473;-74
2024/01/16 04:04:18;;;;;;;;;;;1.40;98.20;;;;;;5065747;27;20162;-74
2024/01/16 04:06:43;;;;;;;;;;;1.40;98.10;;;;;;5065687;28;20370;-74
2024/01/16 04:09:09;;;;;;;;;;;1.50;97.60;;;;;;5064127;28;19927;-75
2024/01/16 04:11:35;;;;;;;;;;;1.40;97.60;;;;;;5067692;28;20398;-75
2024/01/16 04:14:01;;;;;;;;;;;1.60;97.50;;;;;;5096304;28;19932;-74
2024/01/16 04:16:27;;;;;;;;;;;1.60;97.80;;;;;;5081934;28;19927;-75
2024/01/16 04:18:53;;;;;;;;;;;1.20;97.90;;;;;;5062449;28;19927;-75
2024/01/16 04:21:18;;;;;;;;;;;1.30;98.30;;;;;;5097477;27;19932;-74
2024/01/16 04:23:44;;;;;;;;;;;1.50;98.10;;;;;;5078678;28;19936;-74
2024/01/16 04:26:09;;;;;;;;;;;1.70;98.30;;;;;;5064624;28;19928;-74
2024/01/16 04:28:37;;;;;;;;;;;1.90;97.70;;;;;;5081837;28;21833;-75
2024/01/16 04:31:03;;;;;;;;;;;1.90;97.30;;;;;;5080868;28;19924;-74
2024/01/16 04:33:28;;;;;;;;;;;2.00;96.90;;;;;;5080658;28;19988;-74
2024/01/16 04:35:54;;;;;;;;;;;1.80;96.60;;;;;;5080072;28;20054;-74
2024/01/16 04:38:20;;;;;;;;;;;2.10;96.50;;;;;;5099475;27;20297;-74
2024/01/16 04:40:45;;;;;;;;;;;1.90;96.50;;;;;;5099110;27;19928;-75
2024/01/16 04:43:11;;;;;;;;;;;2.10;96.40;;;;;;5080467;28;19932;-74
2024/01/16 04:45:36;;;;;;;;;;;2.00;96.40;;;;;;5079211;28;19980;-74
2024/01/16 04:48:02;;;;;;;;;;;2.20;97.00;;;;;;5098669;28;19924;-75
2024/01/16 04:50:31;;;;;;;;;;;2.30;97.10;;;;;;5080773;28;19971;-75
2024/01/16 04:53:00;;;;;;;;;;;2.30;97.40;;;;;;5063520;28;19920;-75
2024/01/16 04:55:26;;;;;;;;;;;2.20;97.50;;;;;;5079951;28;20014;-74
2024/01/16 04:57:52;;;;;;;;;;;2.20;97.80;;;;;;5079794;28;19963;-75
2024/01/16 05:00:18;;;;;;;;;;;2.00;98.10;;;;;;5095321;28;20010;-74
2024/01/16 05:02:44;;;;;;;;;;;2.10;98.50;;;;;;5080770;28;20237;-74
2024/01/16 05:05:09;;;;;;;;;;;1.70;98.70;;;;;;5097616;27;20473;-75
2024/01/16 05:07:35;;;;;;;;;;;1.70;98.60;;;;;;5080635;28;19924;-75
2024/01/16 05:10:01;;;;;;;;;;;1.90;98.50;;;;;;5080561;28;20294;-74
2024/01/16 05:12:26;;;;;;;;;;;2.00;98.20;;;;;;5081659;28;19985;-75
2024/01/16 05:14:52;;;;;;;;;;;1.60;98.10;;;;;;5097748;27;20169;-74
2024/01/16 05:17:18;;;;;;;;;;;1.80;98.30;;;;;;5078575;28;20291;-73
2024/01/16 05:19:43;;;;;;;;;;;1.90;97.90;;;;;;5078747;28;19928;-74
2024/01/16 05:22:10;;;;;;;;;;;1.70;97.80;;;;;;5098429;27;20204;-74
2024/01/16 05:24:36;;;;;;;;;;;1.80;97.30;;;;;;5062214;28;21183;-75
2024/01/16 05:27:01;;;;;;;;;;;1.70;97.50;;;;;;5062710;28;20397;-75
2024/01/16 05:29:27;;;;;;;;;;;1.80;97.30;;;;;;5079974;28;19928;-75
2024/01/16 05:31:52;;;;;;;;;;;1.80;97.30;;;;;;5080847;28;19928;-75
2024/01/16 05:34:18;;;;;;;;;;;1.70;97.30;;;;;;5061773;28;19942;-75
2024/01/16 05:36:44;;;;;;;;;;;2.00;97.80;;;;;;5079721;28;20382;-74
2024/01/16 05:39:10;;;;;;;;;;;1.60;97.50;;;;;;5065140;28;19932;-74
2024/01/16 05:41:35;;;;;;;;;;;1.60;97.80;;;;;;5097507;28;20015;-74
2024/01/16 05:44:04;;;;;;;;;;;2.00;97.50;;;;;;5076432;28;20575;-75
2024/01/16 05:46:33;;;;;;;;;;;1.60;96.80;;;;;;5078533;28;19928;-74
2024/01/16 05:48:58;;;;;;;;;;;1.90;96.60;;;;;;5097342;28;19931;-74
2024/01/16 05:51:25;;;;;;;;;;;3.50;97.00;;;;;;5098063;28;19924;-74
2024/01/16 05:53:51;;;;;;;;;;;2.10;96.70;;;;;;5063500;28;19931;-75
2024/01/16 05:56:16;;;;;;;;;;;3.30;97.30;;;;;;5080108;28;19939;-75
2024/01/16 05:58:42;;;;;;;;;;;2.70;97.70;;;;;;5081210;28;19934;-75
2024/01/16 06:01:07;;;;;;;;;;;1.90;97.80;;;;;;5098468;28;19943;-75
2024/01/16 06:03:33;;;;;;;;;;;2.80;98.20;;;;;;5061143;28;20020;-75
2024/01/16 06:05:59;;;;;;;;;;;2.80;98.50;;;;;;5080044;28;19924;-75
2024/01/16 06:08:24;;;;;;;;;;;3.60;98.60;;;;;;5082066;27;19928;-75
2024/01/16 06:10:50;;;;;;;;;;;2.00;98.10;;;;;;5083898;28;19935;-75
2024/01/16 06:13:17;;;;;;;;;;;1.70;97.60;;;;;;5102105;27;19970;-75
2024/01/16 06:15:43;;;;;;;;;;;2.00;97.40;;;;;;5081229;28;19932;-75
2024/01/16 06:18:09;;;;;;;;;;;1.80;97.70;;;;;;5083009;28;19935;-75
2024/01/16 06:20:34;;;;;;;;;;;2.00;97.30;;;;;;5083209;28;19927;-75
2024/01/16 06:23:00;;;;;;;;;;;2.30;97.10;;;;;;5083643;27;19927;-74
2024/01/16 06:25:25;;;;;;;;;;;1.90;97.30;;;;;;5082837;28;19984;-75
2024/01/16 06:27:51;;;;;;;;;;;2.30;97.10;;;;;;5082435;28;19975;-75
2024/01/16 06:30:17;;;;;;;;;;;2.00;96.90;;;;;;5066036;28;20002;-75
2024/01/16 06:32:42;;;;;;;;;;;2.40;96.90;;;;;;5084895;28;20018;-76
2024/01/16 06:35:08;;;;;;;;;;;2.00;97.10;;;;;;5066461;28;19934;-78
2024/01/16 06:37:33;;;;;;;;;;;1.70;97.10;;;;;;5081302;28;20020;-77
2024/01/16 06:39:59;;;;;;;;;;;1.70;97.20;;;;;;5098386;27;19959;-76
2024/01/16 06:42:25;;;;;;;;;;;2.50;97.60;;;;;;5085582;28;19927;-77
2024/01/16 06:44:50;;;;;;;;;;;1.60;97.60;;;;;;5067586;28;19932;-76
2024/01/16 06:47:16;;;;;;;;;;;2.50;98.10;;;;;;5082171;28;20397;-76
2024/01/16 06:49:41;;;;;;;;;;;3.60;98.80;;;;;;5081616;28;19928;-77
2024/01/16 06:52:08;;;;;;;;;;;1.70;98.10;;;;;;5085405;28;19987;-77
2024/01/16 06:54:33;;;;;;;;;;;1.70;98.30;;;;;;5098641;27;19920;-78
2024/01/16 06:56:59;;;;;;;;;;;3.60;98.90;;;;;;5065190;28;20055;-77
2024/01/16 06:59:25;;;;;;;;;;;2.30;98.60;;;;;;5081735;28;19932;-76
2024/01/16 07:01:51;;;;;;;;;;;1.80;98.70;;;;;;5084280;28;19946;-80
2024/01/16 07:04:17;;;;;;;;;;;2.00;98.70;;;;;;5080150;28;19939;-82
2024/01/16 07:06:43;;;;;;;;;;;1.90;98.60;;;;;;5083287;28;20301;-83
2024/01/16 07:09:10;;;;;;;;;;;2.70;98.70;;;;;;5063121;28;20025;-80
2024/01/16 07:11:42;;;;;;;;;;;1.60;98.60;;;;;;5082014;28;19962;-82
2024/01/16 07:14:09;;;;;;;;;;;2.60;99.30;;;;;;5066163;28;19979;-81
2024/01/16 07:16:34;;;;;;;;;;;3.10;99.60;;;;;;5083156;28;19924;-82
2024/01/16 07:19:01;;;;;;;;;;;2.10;99.80;;;;;;5080537;28;19932;-81
2024/01/16 07:21:27;;;;;;;;;;;2.10;99.90;;;;;;5085209;28;19923;-80
2024/01/16 07:23:53;;;;;;;;;;;2.60;99.90;;;;;;5086539;28;20023;-82
2024/01/16 07:26:19;;;;;;;;;;;2.40;99.90;;;;;;5087100;28;20311;-82
2024/01/16 07:28:44;;;;;;;;;;;2.40;99.90;;;;;;5067893;28;20442;-81
2024/01/16 07:31:11;;;;;;;;;;;1.70;99.90;;;;;;5069626;27;19932;-82
2024/01/16 07:33:37;;;;;;;;;;;1.50;99.90;;;;;;5087019;27;19967;-81
2024/01/16 07:36:05;;;;;;;;;;;1.70;99.90;;;;;;5086407;28;21938;-84
2024/01/16 07:38:30;;;;;;;;;;;1.70;99.90;;;;;;5081136;28;20052;-81
2024/01/16 07:40:56;;;;;;;;;;;2.20;99.90;;;;;;5086689;28;19941;-80
2024/01/16 07:43:22;;;;;;;;;;;1.70;99.90;;;;;;5102657;27;20060;-81
2024/01/16 07:45:48;;;;;;;;;;;1.50;99.90;;;;;;5101980;27;20015;-82
2024/01/16 07:48:14;;;;;;;;;;;2.10;99.90;;;;;;5083283;28;20014;-81
2024/01/16 07:50:40;;;;;;;;;;;2.30;99.90;;;;;;5083844;28;20030;-78
2024/01/16 07:53:06;;;;;;;;;;;2.20;99.90;;;;;;5068592;28;20014;-81
2024/01/16 07:55:31;;;;;;;;;;;2.40;99.90;;;;;;5084380;28;19927;-75
2024/01/16 07:57:57;;;;;;;;;;;2.40;99.90;;;;;;5083669;28;20637;-76
2024/01/16 08:00:22;;;;;;;;;;;1.40;99.90;;;;;;5082428;28;19928;-76
2024/01/16 08:02:48;;;;;;;;;;;1.40;99.90;;;;;;5101599;27;20002;-75
2024/01/16 08:05:14;;;;;;;;;;;1.60;99.90;;;;;;5098708;28;19935;-75
2024/01/16 08:07:42;;;;;;;;;;;1.50;99.90;;;;;;5082483;28;20170;-75
2024/01/16 08:10:08;;;;;;;;;;;1.30;99.90;;;;;;5082087;28;19927;-75
2024/01/16 08:12:34;;;;;;;;;;;1.40;99.90;;;;;;5083894;27;20058;-74
2024/01/16 08:14:59;;;;;;;;;;;1.50;99.90;;;;;;5077805;28;20019;-73
2024/01/16 08:17:25;;;;;;;;;;;1.40;99.90;;;;;;5102231;27;19935;-74
2024/01/16 08:19:50;;;;;;;;;;;2.00;99.90;;;;;;5081235;28;20417;-74
2024/01/16 08:22:16;;;;;;;;;;;1.50;99.90;;;;;;5063874;28;19932;-75
2024/01/16 08:24:42;;;;;;;;;;;1.30;99.90;;;;;;5080894;28;19954;-74
2024/01/16 08:27:08;;;;;;;;;;;1.50;99.90;;;;;;5083070;28;20240;-74
2024/01/16 08:29:33;;;;;;;;;;;1.90;99.90;;;;;;5081703;28;19924;-74
2024/01/16 08:31:59;;;;;;;;;;;1.50;99.90;;;;;;5083759;28;19928;-75
2024/01/16 08:34:25;;;;;;;;;;;1.70;99.90;;;;;;5065446;28;19967;-74
2024/01/16 08:36:51;;;;;;;;;;;1.90;99.90;;;;;;5083312;27;19961;-74
2024/01/16 08:39:17;;;;;;;;;;;1.90;99.90;;;;;;5103521;28;19927;-75
2024/01/16 08:41:45;;;;;;;;;;;1.50;99.90;;;;;;5069205;28;20351;-74
2024/01/16 08:44:11;;;;;;;;;;;1.80;99.90;;;;;;5065724;28;19932;-74
2024/01/16 08:46:36;;;;;;;;;;;1.30;99.90;;;;;;5080916;28;19923;-75
2024/01/16 08:49:02;;;;;;;;;;;1.30;99.90;;;;;;5079416;28;19932;-78
2024/01/16 08:51:27;;;;;;;;;;;2.10;99.90;;;;;;5068572;28;20030;-77
2024/01/16 08:53:53;;;;;;;;;;;2.60;99.90;;;;;;5104124;28;19932;-76
2024/01/16 08:56:20;;;;;;;;;;;1.80;99.90;;;;;;5081951;28;20657;-76
2024/01/16 08:58:46;;;;;;;;;;;1.20;99.90;;;;;;5083313;28;19927;-77
2024/01/16 09:01:11;;;;;;;;;;;2.40;99.90;;;;;;5083503;28;19930;-77
2024/01/16 09:03:37;;;;;;;;;;;1.20;99.90;;;;;;5069249;28;20003;-76
2024/01/16 09:06:03;;;;;;;;;;;2.30;99.90;;;;;;5073990;28;19931;-77
2024/01/16 09:08:28;;;;;;;;;;;1.20;99.90;;;;;;5086565;28;20028;-77
2024/01/16 09:10:54;;;;;;;;;;;2.00;99.90;;;;;;5082272;28;20015;-77
2024/01/16 09:13:20;;;;;;;;;;;1.40;99.90;;;;;;5096614;28;19928;-79
2024/01/16 09:15:49;;;;;;;;;;;1.20;99.90;;;;;;5064515;28;19935;-77
2024/01/16 09:18:18;;;;;;;;;;;1.30;99.90;;;;;;5084056;28;19950;-77
2024/01/16 09:20:43;;;;;;;;;;;1.50;99.90;;;;;;5063679;28;19924;-77
2024/01/16 09:23:09;;;;;;;;;;;2.00;99.90;;;;;;5081272;28;19942;-78
2024/01/16 09:25:35;;;;;;;;;;;1.60;99.90;;;;;;5049713;28;19927;-79
2024/01/16 09:28:01;;;;;;;;;;;1.40;99.90;;;;;;5084072;28;19932;-77
2024/01/16 09:30:27;;;;;;;;;;;1.40;99.90;;;;;;5081597;28;19942;-78
2024/01/16 09:32:52;;;;;;;;;;;1.70;99.90;;;;;;5068221;28;19927;-73
2024/01/16 09:35:18;;;;;;;;;;;1.90;99.90;;;;;;5103709;28;20012;-74
2024/01/16 09:37:44;;;;;;;;;;;2.00;99.90;;;;;;5086331;28;20022;-74
2024/01/16 09:40:10;;;;;;;;;;;1.80;99.90;;;;;;5085552;28;19977;-76
2024/01/16 09:42:36;;;;;;;;;;;1.90;99.90;;;;;;5068976;28;19927;-76
2024/01/16 09:45:05;;;;;;;;;;;1.70;99.90;;;;;;5071728;28;19927;-76
2024/01/16 09:47:31;;;;;;;;;;;1.90;99.90;;;;;;5103705;28;20004;-75
2024/01/16 09:49:59;;;;;;;;;;;1.90;99.90;;;;;;5103112;28;19928;-75
2024/01/16 09:52:25;;;;;;;;;;;2.00;99.90;;;;;;5084349;28;19955;-75
2024/01/16 09:54:50;;;;;;;;;;;2.30;99.90;;;;;;5085349;28;19971;-76
2024/01/16 09:57:18;;;;;;;;;;;1.90;99.90;;;;;;5085141;28;20383;-76
2024/01/16 09:59:44;;;;;;;;;;;1.80;99.90;;;;;;5082656;28;19927;-75
2024/01/16 10:02:10;;;;;;;;;;;2.70;99.90;;;;;;5101597;28;19938;-76
2024/01/16 10:04:36;;;;;;;;;;;1.70;99.90;;;;;;5099934;28;19927;-79
2024/01/16 10:07:02;;;;;;;;;;;1.70;99.90;;;;;;5083465;28;20865;-78
2024/01/16 10:09:27;;;;;;;;;;;1.90;99.90;;;;;;5080049;28;21489;-79
2024/01/16 10:11:54;;;;;;;;;;;1.90;99.90;;;;;;5079202;28;19935;-79
2024/01/16 10:14:19;;;;;;;;;;;1.90;99.90;;;;;;5084359;28;20374;-80
2024/01/16 10:17:17;;;;;;;;;;;1.60;99.90;;;;;;5066348;28;19927;-79
2024/01/16 10:19:50;;;;;;;;;;;1.60;99.90;;;;;;5052516;28;19932;-75
2024/01/16 10:22:24;;;;;;;;;;;1.60;99.90;;;;;;5081024;28;20072;-75
2024/01/16 10:25:07;;;;;;;;;;;1.60;99.90;;;;;;5081610;28;19932;-74
2024/01/16 10:27:33;;;;;;;;;;;1.40;99.90;;;;;;5099228;28;20318;-76
2024/01/16 10:29:59;;;;;;;;;;;2.00;99.90;;;;;;5095749;28;19926;-75
2024/01/16 10:32:33;;;;;;;;;;;1.40;99.90;;;;;;5082396;28;19951;-76
2024/01/16 10:35:04;;;;;;;;;;;1.70;99.90;;;;;;5082639;28;20029;-76
2024/01/16 10:37:31;;;;;;;;;;;1.80;99.90;;;;;;5064407;28;19931;-75
2024/01/16 10:39:56;;;;;;;;;;;2.40;99.90;;;;;;5079391;28;20463;-75
2024/01/16 10:42:28;;;;;;;;;;;1.90;99.90;;;;;;5060774;28;20350;-75
2024/01/16 10:44:54;;;;;;;;;;;3.30;99.90;;;;;;5082228;28;19920;-75
2024/01/16 10:47:21;;;;;;;;;;;2.00;99.90;;;;;;5079021;28;20464;-76
2024/01/16 10:49:46;;;;;;;;;;;1.90;99.90;;;;;;5080065;28;20065;-75
2024/01/16 10:52:12;;;;;;;;;;;2.70;99.90;;;;;;5066904;27;19931;-75
2024/01/16 10:54:41;;;;;;;;;;;1.90;99.90;;;;;;5084835;28;19927;-75
2024/01/16 10:57:06;;;;;;;;;;;2.60;99.90;;;;;;5083161;28;19951;-75
2024/01/16 10:59:38;;;;;;;;;;;2.20;99.90;;;;;;5098470;28;20366;-75
2024/01/16 11:02:05;;;;;;;;;;;2.50;99.90;;;;;;5084872;27;20470;-75
2024/01/16 11:04:32;;;;;;;;;;;2.10;99.90;;;;;;5083123;28;19928;-75
2024/01/16 11:06:58;;;;;;;;;;;2.10;99.90;;;;;;5100523;28;20050;-75
2024/01/16 11:09:24;;;;;;;;;;;2.40;99.90;;;;;;5102067;28;20007;-76
2024/01/16 11:11:51;;;;;;;;;;;2.30;99.90;;;;;;5081886;28;19963;-75
2024/01/16 11:14:16;;;;;;;;;;;2.70;99.90;;;;;;5081905;28;19928;-75
2024/01/16 11:16:43;;;;;;;;;;;2.40;99.90;;;;;;5083224;28;19924;-75
2024/01/16 11:19:09;;;;;;;;;;;3.00;99.90;;;;;;5079386;27;19939;-74
2024/01/16 11:21:39;;;;;;;;;;;3.80;99.90;;;;;;5080902;27;20427;-74
2024/01/16 11:24:04;;;;;;;;;;;2.70;99.90;;;;;;5081643;28;20385;-74
2024/01/16 11:26:34;;;;;;;;;;;2.70;99.90;;;;;;5101349;28;19928;-74
2024/01/16 11:29:00;;;;;;;;;;;3.00;99.90;;;;;;5079268;28;19928;-74
2024/01/16 11:31:30;;;;;;;;;;;2.60;99.90;;;;;;5065548;28;19924;-73
2024/01/16 11:33:56;;;;;;;;;;;2.40;99.90;;;;;;5093000;27;20368;-74
2024/01/16 11:36:57;;;;;;;;;;;2.80;99.90;;;;;;5061554;28;19928;-74
2024/01/16 11:39:26;;;;;;;;;;;2.60;99.90;;;;;;5041695;28;20387;-74
2024/01/16 11:41:52;;;;;;;;;;;2.80;99.90;;;;;;5088780;27;20027;-77
2024/01/16 11:44:36;;;;;;;;;;;2.60;99.90;;;;;;5080221;28;20163;-78
2024/01/16 11:47:02;;;;;;;;;;;2.80;99.90;;;;;;5062238;27;20363;-77
2024/01/16 11:49:30;;;;;;;;;;;2.70;99.90;;;;;;5083063;28;19938;-77
2024/01/16 11:51:55;;;;;;;;;;;3.30;99.90;;;;;;5080145;28;19927;-73
2024/01/16 11:54:21;;;;;;;;;;;2.50;99.90;;;;;;5081182;28;19936;-74
2024/01/16 11:57:02;;;;;;;;;;;2.60;99.90;;;;;;5067700;28;19978;-74
2024/01/16 11:59:48;;;;;;;;;;;2.60;99.90;;;;;;5098216;27;20330;-75
2024/01/16 12:02:32;;;;;;;;;;;2.50;99.90;;;;;;5084275;28;20014;-75
2024/01/16 12:05:03;;;;;;;;;;;2.50;99.90;;;;;;5079577;28;19955;-76
2024/01/16 12:07:29;;;;;;;;;;;2.70;99.90;;;;;;5064615;28;19927;-77
2024/01/16 12:09:58;;;;;;;;;;;2.70;99.90;;;;;;5096701;27;19928;-74
2024/01/16 12:12:26;;;;;;;;;;;2.50;99.90;;;;;;5083437;28;19973;-73
2024/01/16 12:14:54;;;;;;;;;;;2.50;99.90;;;;;;5083247;28;19931;-74
2024/01/16 12:17:20;;;;;;;;;;;3.30;99.90;;;;;;5084573;28;20019;-74
2024/01/16 12:19:46;;;;;;;;;;;2.60;99.90;;;;;;5084743;27;20002;-74
2024/01/16 12:22:16;;;;;;;;;;;2.90;99.90;;;;;;5083894;28;19936;-78
2024/01/16 12:24:42;;;;;;;;;;;2.30;99.90;;;;;;5084038;27;19927;-77
2024/01/16 12:27:08;;;;;;;;;;;4.20;99.90;;;;;;5086515;28;19935;-78
2024/01/16 12:29:34;;;;;;;;;;;2.90;99.90;;;;;;5082589;28;19923;-78
2024/01/16 12:32:14;;;;;;;;;;;2.90;99.90;;;;;;5082348;28;20162;-74
2024/01/16 12:34:47;;;;;;;;;;;2.90;99.90;;;;;;5082397;28;20180;-77
2024/01/16 12:37:13;;;;;;;;;;;2.70;99.90;;;;;;5080097;28;19997;-74
2024/01/16 12:39:41;;;;;;;;;;;3.10;99.90;;;;;;5077556;28;19934;-74
2024/01/16 12:42:09;;;;;;;;;;;3.90;99.90;;;;;;5078479;28;19924;-73
2024/01/16 12:44:35;;;;;;;;;;;3.40;99.90;;;;;;5062143;28;19967;-74
2024/01/16 12:47:01;;;;;;;;;;;3.50;99.90;;;;;;5097311;28;20300;-74
2024/01/16 12:49:27;;;;;;;;;;;3.20;99.10;;;;;;5088780;28;20440;-74
2024/01/16 12:52:12;;;;;;;;;;;3.50;98.10;;;;;;5082963;28;19982;-74
2024/01/16 12:54:37;;;;;;;;;;;3.20;97.80;;;;;;5084043;28;20345;-75
2024/01/16 12:57:03;;;;;;;;;;;3.30;95.50;;;;;;5081079;28;19934;-75
2024/01/16 12:59:29;;;;;;;;;;;3.30;97.10;;;;;;5079404;28;19920;-73
2024/01/16 13:01:55;;;;;;;;;;;3.20;96.90;;;;;;5079124;27;20022;-74
2024/01/16 13:04:21;;;;;;;;;;;3.00;96.10;;;;;;5066328;28;19931;-74
2024/01/16 13:06:48;;;;;;;;;;;3.00;95.00;;;;;;5096506;28;19939;-74
2024/01/16 13:09:18;;;;;;;;;;;3.00;93.50;;;;;;5065507;28;19938;-74
2024/01/16 13:11:50;;;;;;;;;;;3.10;94.70;;;;;;5065009;28;19928;-74
2024/01/16 13:14:16;;;;;;;;;;;3.30;92.60;;;;;;5082487;28;19963;-75
2024/01/16 13:16:41;;;;;;;;;;;3.30;91.00;;;;;;5095089;28;20038;-74
2024/01/16 13:19:09;;;;;;;;;;;3.30;90.40;;;;;;5082062;28;19932;-74
2024/01/16 13:21:36;;;;;;;;;;;3.20;86.40;;;;;;5095379;28;19947;-74
2024/01/16 13:24:02;;;;;;;;;;;4.30;86.20;;;;;;5094730;28;20059;-73
2024/01/16 13:26:28;;;;;;;;;;;3.20;86.10;;;;;;5101060;28;20329;-74
2024/01/16 13:28:54;;;;;;;;;;;3.20;87.50;;;;;;5099725;28;19924;-74
2024/01/16 13:31:21;;;;;;;;;;;3.30;82.20;;;;;;5080971;27;19959;-74
2024/01/16 13:33:46;;;;;;;;;;;3.30;79.10;;;;;;5080724;28;19932;-74
2024/01/16 13:36:12;;;;;;;;;;;3.20;79.00;;;;;;5079865;28;19943;-75
2024/01/16 13:38:38;;;;;;;;;;;3.20;72.10;;;;;;5097384;27;19931;-74
2024/01/16 13:41:03;;;;;;;;;;;3.20;75.00;;;;;;5084682;28;19920;-75
2024/01/16 13:43:29;;;;;;;;;;;3.20;71.90;;;;;;5064162;28;20909;-75
2024/01/16 13:45:55;;;;;;;;;;;3.20;72.50;;;;;;5082198;28;20027;-75
2024/01/16 13:48:21;;;;;;;;;;;3.20;70.90;;;;;;5081628;28;20191;-75
2024/01/16 13:50:50;;;;;;;;;;;3.20;71.80;;;;;;5083017;28;20358;-75
2024/01/16 13:53:15;;;;;;;;;;;3.60;76.30;;;;;;5098062;28;19932;-76
2024/01/16 13:55:41;;;;;;;;;;;3.50;72.50;;;;;;5065714;28;20598;-74
2024/01/16 13:58:07;;;;;;;;;;;3.60;75.20;;;;;;5080282;28;20001;-76
2024/01/16 14:00:33;;;;;;;;;;;3.30;74.40;;;;;;5081812;28;20505;-76
2024/01/16 14:02:59;;;;;;;;;;;3.40;76.60;;;;;;5082901;28;20069;-75
2024/01/16 14:05:25;;;;;;;;;;;3.30;76.70;;;;;;5082261;28;19974;-75
2024/01/16 14:07:51;;;;;;;;;;;4.30;77.30;;;;;;5101189;28;19968;-75
2024/01/16 14:10:18;;;;;;;;;;;3.10;79.20;;;;;;5063580;28;20031;-75
2024/01/16 14:12:44;;;;;;;;;;;3.10;80.30;;;;;;5082134;28;19939;-75
2024/01/16 14:15:19;;;;;;;;;;;3.10;80.00;;;;;;5083100;28;19923;-75
2024/01/16 14:17:48;;;;;;;;;;;3.20;80.30;;;;;;5081962;28;20401;-75
2024/01/16 14:20:15;;;;;;;;;;;3.20;80.40;;;;;;5084145;28;19924;-75
2024/01/16 14:22:43;;;;;;;;;;;3.20;80.20;;;;;;5085238;28;19927;-74
2024/01/16 14:25:12;;;;;;;;;;;3.20;81.40;;;;;;5084104;28;19982;-75
2024/01/16 14:27:40;;;;;;;;;;;3.90;80.00;;;;;;5086812;28;20045;-75